Aérodrome :
LOGIN :

S'inscrire | Disclaimer

   EN    FR    IT 

 










Légende :    VFR   VFR Marginal   IFR   IFR Intensif   IFR Très Intensif
Visi : 
Plafond : 
>= 8 km
>= 3000ft
5 à 8 km
1000 à 3000 ft
1500m à 5 km
500 à 1000 ft
800 à 1500m
200 à 500 ft
< 800m
< 200 ft
Symboles :   Orages  Brouillard  Fortes neiges  Fortes précipitations  Vent > 20 kt
SIGMETs :   Divers  Orages  Givrage  Turbulence  Onde Orograph.  Cendres Volcan.







- Altitude de l'aérodrome : 863 ft
- Code IATA : ZAZ


LEZG - Zaragoza Aragon

DERNIER METAR :
  • 192000Z 25008KT CAVOK 15/10 Q1013

METARs EXPIRÉS :
  • 191930Z 25009KT CAVOK 15/10 Q1013
  • 191900Z 24006KT 9999 FEW040 15/10 Q1013
  • 191830Z 23006KT 9999 FEW040 15/10 Q1012
  • 191800Z 25006KT 9999 FEW040 16/10 Q1012
  • 191730Z 27007KT 9999 FEW040 16/11 Q1012

TAF TAF LEZG
Valide du 19 à 18h jusqu'au 20 à 18h UTC


191700Z 1918/2018 27008KT 9999 SCT060 TX23/2012Z TN10/2006Z
TEMPO 2011/2018 VRB04KT
Pas de NOTAMs connus pour ce terrain.
1 SIGMET publié pour la FIR Madrid (LECM) :
 
Turbulence forte
LECM SIGMET 7 VALID 192000/192400 LEVA
LECM MADRID FIR/UIR SEV TURB FCST E OF LINE N4340 W002 - N3810 W002 FL200/340 MOV E 20KT WKN=



MET'MAP, la Météo Aéronautique d'un coup d'oeil ! - Copyright ORBIFLY Décembre 2007 - Disclaimer

ORBIFLY MET'MAP TEAM :

Programmation & Développement : Alexandra Zaïnal
Conception & Développement : Baudouin d'Aumeries
Co-Programmation & Développement : Marc-Olivier Méhu
Soutien technique & logistique : Manuel Goepfert

Contact : metmap@orbifly.com




SOURCES & CREDITS :

   NOAA